Time;durP1;ratioP1;P1;durP2;ratioP2;P2;SDS_P1;SDS_P2;PMS_P1;PMS_P2;Temp;Humidity;BMP_temperature;BMP_pressure;BME280_temperature;BME280_humidity;BME280_pressure;Samples;Min_cycle;Max_cycle;Signal;HPM_P1;HPM_P2
2023/09/23 00:03:01;;;;;;;1999.90;999.90;;;;;;;11.34;100.00;100634.97;10374703;28;20052;-78
2023/09/23 00:08:06;;;;;;;1999.90;999.90;;;;;;;11.15;100.00;100641.38;10375800;28;20088;-77
2023/09/23 00:13:08;;;;;;;1999.90;999.90;;;;;;;11.18;100.00;100648.22;10358337;28;20050;-78
2023/09/23 00:18:11;;;;;;;1999.90;999.90;;;;;;;10.96;100.00;100651.28;10374975;28;20578;-78
2023/09/23 00:23:13;;;;;;;1999.90;999.90;;;;;;;11.36;100.00;100648.81;10357600;28;20092;-79
2023/09/23 00:28:16;;;;;;;1999.90;999.90;;;;;;;11.23;100.00;100655.78;10375123;28;20050;-79
2023/09/23 00:33:18;;;;;;;1999.90;999.90;;;;;;;11.03;100.00;100662.25;10357769;28;20124;-78
2023/09/23 00:38:21;;;;;;;1999.90;999.90;;;;;;;11.26;100.00;100669.56;10356968;28;20423;-78
2023/09/23 00:43:24;;;;;;;1999.90;999.90;;;;;;;11.26;100.00;100653.81;10373988;28;20407;-78
2023/09/23 00:48:30;;;;;;;1999.90;999.90;;;;;;;11.32;100.00;100663.06;10357351;28;20145;-78
2023/09/23 00:53:35;;;;;;;1999.90;999.90;;;;;;;11.20;100.00;100669.09;10374756;28;20046;-79
2023/09/23 00:58:37;;;;;;;1999.90;999.90;;;;;;;10.97;100.00;100673.94;10373510;28;20056;-79
2023/09/23 01:03:40;;;;;;;1999.90;999.90;;;;;;;11.18;100.00;100686.66;10374428;28;20046;-79
2023/09/23 01:08:44;;;;;;;1999.90;999.90;;;;;;;11.33;100.00;100681.31;10373226;28;20083;-79
2023/09/23 01:13:50;;;;;;;1999.90;999.90;;;;;;;11.09;100.00;100685.44;10373865;28;20050;-79
2023/09/23 01:18:54;;;;;;;1999.90;999.90;;;;;;;11.06;100.00;100686.50;10372517;28;20096;-80
2023/09/23 01:23:56;;;;;;;1999.90;999.90;;;;;;;11.26;100.00;100708.00;10372956;28;20058;-79
2023/09/23 01:28:58;;;;;;;1999.90;999.90;;;;;;;11.15;100.00;100712.13;10373274;28;20479;-79
2023/09/23 01:34:01;;;;;;;1999.90;999.90;;;;;;;11.30;100.00;100720.81;10360801;28;20054;-80
2023/09/23 01:39:07;;;;;;;1999.90;999.90;;;;;;;11.24;100.00;100720.34;10381428;28;20054;-79
2023/09/23 01:44:09;;;;;;;1999.90;999.90;;;;;;;11.28;100.00;100724.47;10380426;28;20072;-79
2023/09/23 01:49:12;;;;;;;1999.90;999.90;;;;;;;11.14;100.00;100733.19;10379368;28;20491;-79
2023/09/23 01:54:16;;;;;;;1999.90;999.90;;;;;;;11.31;100.00;100735.63;10379770;28;20060;-79
2023/09/23 01:59:18;;;;;;;1999.90;999.90;;;;;;;11.43;100.00;100725.31;10380628;28;20084;-80
2023/09/23 02:04:20;;;;;;;1999.90;999.90;;;;;;;11.43;100.00;100738.41;10380568;28;20057;-80
2023/09/23 02:09:23;;;;;;;1999.90;999.90;;;;;;;11.42;100.00;100744.59;10363041;28;20046;-80
2023/09/23 02:14:25;;;;;;;1999.90;999.90;;;;;;;11.48;100.00;100754.69;10378964;28;20125;-80
2023/09/23 02:19:28;;;;;;;1999.90;999.90;;;;;;;11.50;100.00;100753.69;10361875;28;20578;-80
2023/09/23 02:24:32;;;;;;;1999.90;999.90;;;;;;;11.55;100.00;100756.03;10379777;28;20054;-80
2023/09/23 02:29:35;;;;;;;1999.90;999.90;;;;;;;11.36;100.00;100764.16;10378924;28;20046;-80
2023/09/23 02:34:39;;;;;;;1999.90;999.90;;;;;;;11.61;100.00;100776.59;10379240;28;20046;-80
2023/09/23 02:39:41;;;;;;;1999.90;999.90;;;;;;;11.24;100.00;100785.88;10379001;28;20116;-79
2023/09/23 02:44:45;;;;;;;1999.90;999.90;;;;;;;11.56;100.00;100785.69;10378097;28;20054;-79
2023/09/23 02:49:47;;;;;;;1999.90;999.90;;;;;;;11.31;100.00;100790.66;10361284;28;20073;-80
2023/09/23 02:54:54;;;;;;;1999.90;999.90;;;;;;;11.53;100.00;100792.81;10377375;28;20058;-79
2023/09/23 02:59:57;;;;;;;1999.90;999.90;;;;;;;11.47;100.00;100792.34;10378365;28;20050;-79
2023/09/23 03:05:01;;;;;;;1999.90;999.90;;;;;;;11.42;100.00;100792.63;10377017;28;20050;-78
2023/09/23 03:10:09;;;;;;;1999.90;999.90;;;;;;;11.45;100.00;100789.81;10376141;28;20080;-79
2023/09/23 03:15:15;;;;;;;1999.90;999.90;;;;;;;11.56;100.00;100796.19;10376036;28;20231;-79
2023/09/23 03:20:21;;;;;;;1999.90;999.90;;;;;;;11.40;100.00;100809.38;10375752;28;20045;-78
2023/09/23 03:25:23;;;;;;;1999.90;999.90;;;;;;;11.35;100.00;100820.16;10377396;28;20128;-79
2023/09/23 03:30:27;;;;;;;1999.90;999.90;;;;;;;11.40;100.00;100818.09;10377055;28;20049;-79
2023/09/23 03:35:30;;;;;;;1999.90;999.90;;;;;;;11.40;100.00;100820.72;10376283;28;20406;-80
2023/09/23 03:40:32;;;;;;;1999.90;999.90;;;;;;;11.55;100.00;100816.31;10358654;28;20056;-79
2023/09/23 03:45:35;;;;;;;1999.90;999.90;;;;;;;11.49;100.00;100807.03;10334024;28;20062;-79
2023/09/23 03:50:37;;;;;;;1999.90;999.90;;;;;;;11.48;100.00;100828.09;10335184;28;20492;-77
2023/09/23 03:55:40;;;;;;;1999.90;999.90;;;;;;;11.38;100.00;100817.34;10334373;28;20519;-79
2023/09/23 04:00:43;;;;;;;1999.90;999.90;;;;;;;11.44;100.00;100830.06;10334275;28;20046;-77
2023/09/23 04:05:57;;;;;;;1999.90;999.90;;;;;;;11.46;100.00;100843.09;10335375;28;20060;-77
2023/09/23 04:11:04;;;;;;;1999.90;999.90;;;;;;;11.63;100.00;100836.81;10334048;28;20101;-79
2023/09/23 04:16:06;;;;;;;1999.90;999.90;;;;;;;11.34;100.00;100842.06;10335096;28;20134;-80
2023/09/23 04:21:09;;;;;;;1999.90;999.90;;;;;;;11.48;100.00;100849.06;10334776;28;20130;-80
2023/09/23 04:26:12;;;;;;;1999.90;999.90;;;;;;;11.40;100.00;100862.66;10333510;28;20065;-79
2023/09/23 04:31:15;;;;;;;1999.90;999.90;;;;;;;11.40;100.00;100864.41;10334574;28;20065;-79
2023/09/23 04:36:18;;;;;;;1999.90;999.90;;;;;;;11.37;100.00;100862.84;10333262;28;20088;-79
2023/09/23 04:41:20;;;;;;;1999.90;999.90;;;;;;;11.47;100.00;100873.63;10333048;28;20050;-79
2023/09/23 04:46:23;;;;;;;1999.90;999.90;;;;;;;11.45;100.00;100884.19;10365813;28;20498;-79
2023/09/23 04:51:26;;;;;;;1999.90;999.90;;;;;;;11.40;100.00;100891.50;10356608;28;20498;-77
2023/09/23 04:56:28;;;;;;;1999.90;999.90;;;;;;;11.42;100.00;100891.41;10372821;28;20054;-79
2023/09/23 05:01:30;;;;;;;1999.90;999.90;;;;;;;11.50;100.00;100894.44;10357006;28;20045;-78
2023/09/23 05:06:35;;;;;;;1999.90;999.90;;;;;;;11.21;100.00;100901.38;10375277;28;20050;-78
2023/09/23 05:11:38;;;;;;;1999.90;999.90;;;;;;;11.23;100.00;100899.50;10381409;28;20056;-78
2023/09/23 05:16:40;;;;;;;1999.90;999.90;;;;;;;11.35;100.00;100914.53;10382327;28;20060;-78
2023/09/23 05:21:45;;;;;;;1999.90;999.90;;;;;;;11.48;100.00;100922.50;10382038;28;20046;-78
2023/09/23 05:26:51;;;;;;;1999.90;999.90;;;;;;;11.29;100.00;100922.72;10364242;28;20054;-78
2023/09/23 05:31:53;;;;;;;1999.90;999.90;;;;;;;11.39;100.00;100938.78;10381104;28;20509;-78
2023/09/23 05:36:56;;;;;;;1999.90;999.90;;;;;;;11.46;100.00;100937.47;10381645;28;20125;-78
2023/09/23 05:41:59;;;;;;;1999.90;999.90;;;;;;;11.30;100.00;100951.47;10363915;28;20050;-78
2023/09/23 05:47:02;;;;;;;1999.90;999.90;;;;;;;11.25;100.00;100956.16;10380355;28;20406;-78
2023/09/23 05:52:07;;;;;;;1999.90;999.90;;;;;;;11.26;100.00;100975.31;10381035;28;20073;-79
2023/09/23 05:57:09;;;;;;;1999.90;999.90;;;;;;;11.19;100.00;100982.69;10380791;28;20060;-78
2023/09/23 06:02:12;;;;;;;1999.90;999.90;;;;;;;11.26;100.00;100986.69;10363208;28;20046;-79
2023/09/23 06:07:14;;;;;;;1999.90;999.90;;;;;;;11.28;100.00;100995.28;10378645;28;20457;-77
2023/09/23 06:12:17;;;;;;;1999.90;999.90;;;;;;;11.14;100.00;101011.78;10379129;28;20081;-78
2023/09/23 06:17:19;;;;;;;1999.90;999.90;;;;;;;11.35;100.00;101016.75;10379311;28;20128;-77
2023/09/23 06:22:22;;;;;;;1999.90;999.90;;;;;;;11.49;100.00;101016.78;10362395;28;20052;-77
2023/09/23 06:27:25;;;;;;;1999.90;999.90;;;;;;;11.26;100.00;101027.75;10362153;28;20050;-78
2023/09/23 06:32:27;;;;;;;1999.90;999.90;;;;;;;11.53;100.00;101043.69;10378769;28;20050;-78
2023/09/23 06:37:30;;;;;;;1999.90;999.90;;;;;;;11.55;100.00;101047.06;10378056;28;20137;-78
2023/09/23 06:42:33;;;;;;;1999.90;999.90;;;;;;;11.69;100.00;101057.59;10378071;28;20050;-78
2023/09/23 06:47:35;;;;;;;1999.90;999.90;;;;;;;11.80;100.00;101062.25;10378794;28;20045;-79
2023/09/23 06:52:38;;;;;;;1999.90;999.90;;;;;;;11.98;100.00;101062.13;10378559;28;20120;-77
2023/09/23 06:57:40;;;;;;;1999.90;999.90;;;;;;;11.92;100.00;101065.09;10383897;23;20502;-79
2023/09/23 07:02:42;;;;;;;1999.90;999.90;;;;;;;11.76;100.00;101070.38;10360858;28;20046;-78
2023/09/23 07:07:45;;;;;;;1999.90;999.90;;;;;;;12.12;100.00;101074.41;10378217;28;20060;-79
2023/09/23 07:12:47;;;;;;;1999.90;999.90;;;;;;;12.25;100.00;101075.38;10360557;28;20045;-79
2023/09/23 07:17:50;;;;;;;1999.90;999.90;;;;;;;12.44;100.00;101083.84;10377740;28;20046;-80
2023/09/23 07:22:52;;;;;;;1999.90;999.90;;;;;;;12.56;100.00;101089.28;10360170;28;20046;-80
2023/09/23 07:27:57;;;;;;;1999.90;999.90;;;;;;;12.85;100.00;101087.47;10377333;28;20129;-80
2023/09/23 07:32:59;;;;;;;1999.90;999.90;;;;;;;12.85;100.00;101100.63;10342111;28;20073;-81
2023/09/23 07:38:02;;;;;;;1999.90;999.90;;;;;;;12.88;100.00;101099.56;10376974;28;20056;-81
2023/09/23 07:43:05;;;;;;;1999.90;999.90;;;;;;;12.52;100.00;101120.13;10358770;28;20054;-78
2023/09/23 07:48:07;;;;;;;1999.90;999.90;;;;;;;13.07;100.00;101115.06;10376061;28;20056;-81
2023/09/23 07:53:10;;;;;;;1999.90;999.90;;;;;;;14.45;100.00;101119.16;10376471;28;20054;-81
2023/09/23 07:58:12;;;;;;;1999.90;999.90;;;;;;;14.24;100.00;101118.84;10375480;28;20068;-80
2023/09/23 08:03:15;;;;;;;1999.90;999.90;;;;;;;13.51;100.00;101141.16;10375975;28;20046;-79
2023/09/23 08:08:17;;;;;;;1999.90;999.90;;;;;;;13.71;100.00;101149.56;10358609;28;20081;-80
2023/09/23 08:13:20;;;;;;;1999.90;999.90;;;;;;;13.69;100.00;101156.72;10375762;28;20049;-80
2023/09/23 08:18:25;;;;;;;1999.90;999.90;;;;;;;14.15;100.00;101168.66;10375562;28;20046;-79
2023/09/23 08:23:28;;;;;;;1999.90;999.90;;;;;;;15.08;100.00;101169.34;10357262;28;20096;-78
2023/09/23 08:28:31;;;;;;;1999.90;999.90;;;;;;;15.63;100.00;101175.06;10341723;28;20140;-79
2023/09/23 08:33:33;;;;;;;1999.90;999.90;;;;;;;14.98;100.00;101181.50;10357714;28;20056;-79
2023/09/23 08:38:35;;;;;;;1999.90;999.90;;;;;;;14.88;100.00;101193.59;10374781;28;20137;-79
2023/09/23 08:43:39;;;;;;;1999.90;999.90;;;;;;;14.62;100.00;101201.50;10340772;28;20049;-80
2023/09/23 08:48:41;;;;;;;1999.90;999.90;;;;;;;15.40;100.00;101198.69;10357355;28;20053;-79
2023/09/23 08:53:44;;;;;;;1999.90;999.90;;;;;;;15.27;100.00;101212.88;10357252;28;20072;-78
2023/09/23 08:58:48;;;;;;;1999.90;999.90;;;;;;;15.26;100.00;101205.91;10357255;28;20050;-78
2023/09/23 09:03:53;;;;;;;1999.90;999.90;;;;;;;15.01;100.00;101215.53;10356405;28;20410;-79
2023/09/23 09:08:56;;;;;;;1999.90;999.90;;;;;;;14.83;100.00;101229.03;10374407;28;20129;-78
2023/09/23 09:13:58;;;;;;;1999.90;999.90;;;;;;;15.22;100.00;101226.38;10374310;28;20074;-78
2023/09/23 09:19:01;;;;;;;1999.90;999.90;;;;;;;15.30;100.00;101239.03;10340150;28;20415;-78
2023/09/23 09:24:04;;;;;;;1999.90;999.90;;;;;;;16.79;100.00;101232.56;10356608;28;20100;-78
2023/09/23 09:29:07;;;;;;;1999.90;999.90;;;;;;;15.67;100.00;101236.41;10373349;28;20054;-78
2023/09/23 09:34:11;;;;;;;1999.90;999.90;;;;;;;15.63;100.00;101243.69;10356503;28;20104;-77
2023/09/23 09:39:17;;;;;;;1999.90;999.90;;;;;;;15.95;100.00;101248.47;10373745;28;20049;-78
2023/09/23 09:44:22;;;;;;;1999.90;999.90;;;;;;;16.78;100.00;101258.16;10340337;28;20048;-77
2023/09/23 09:49:25;;;;;;;1999.90;999.90;;;;;;;17.80;100.00;101252.88;10339788;28;20489;-77
2023/09/23 09:54:27;;;;;;;1999.90;999.90;;;;;;;19.56;87.88;101248.78;10377011;28;20054;-77
2023/09/23 09:59:32;;;;;;;1999.90;999.90;;;;;;;17.17;90.82;101271.13;10363389;28;20052;-78
2023/09/23 10:04:34;;;;;;;1999.90;999.90;;;;;;;16.39;97.61;101272.59;10363302;28;20056;-77
2023/09/23 10:09:38;;;;;;;1999.90;999.90;;;;;;;16.31;98.54;101279.28;10363017;28;20046;-77
2023/09/23 10:14:41;;;;;;;1999.90;999.90;;;;;;;15.65;100.00;101283.19;10362430;28;20483;-77
2023/09/23 10:19:49;;;;;;;1999.90;999.90;;;;;;;15.40;100.00;101282.31;10361931;28;20487;-77
2023/09/23 10:25:04;;;;;;;1999.90;999.90;;;;;;;15.86;100.00;101283.50;10379707;28;20069;-78
2023/09/23 10:30:07;;;;;;;1999.90;999.90;;;;;;;15.48;100.00;101301.03;10362301;28;20112;-78
2023/09/23 10:35:09;;;;;;;1999.90;999.90;;;;;;;15.11;100.00;101316.78;10345226;28;20058;-77
2023/09/23 10:40:12;;;;;;;1999.90;999.90;;;;;;;15.57;100.00;101318.88;10379089;28;20099;-77
2023/09/23 10:45:17;;;;;;;1999.90;999.90;;;;;;;15.70;100.00;101329.44;10361666;28;20062;-77
2023/09/23 10:50:20;;;;;;;1999.90;999.90;;;;;;;15.41;100.00;101331.47;10378843;28;20073;-76
2023/09/23 10:55:23;;;;;;;1999.90;999.90;;;;;;;16.26;100.00;101323.69;10378223;28;20053;-77
2023/09/23 11:00:25;;;;;;;1999.90;999.90;;;;;;;17.30;94.56;101330.06;10360907;28;20054;-77
2023/09/23 11:05:28;;;;;;;1999.90;999.90;;;;;;;19.82;89.97;101339.47;10359957;28;20517;-78
2023/09/23 11:10:31;;;;;;;1999.90;999.90;;;;;;;18.85;86.17;101331.84;10360657;28;20133;-78
2023/09/23 11:15:33;;;;;;;1999.90;999.90;;;;;;;17.33;90.23;101355.44;10377115;28;20409;-77
2023/09/23 11:20:38;;;;;;;1999.90;999.90;;;;;;;17.35;93.12;101358.81;10359511;28;20474;-77
2023/09/23 11:25:44;;;;;;;1999.90;999.90;;;;;;;18.05;92.00;101360.38;10360074;28;20057;-77
2023/09/23 11:30:48;;;;;;;1999.90;999.90;;;;;;;17.45;87.74;101365.94;10376633;28;20449;-77
2023/09/23 11:35:50;;;;;;;1999.90;999.90;;;;;;;17.42;88.01;101367.97;10343549;28;20046;-77
2023/09/23 11:40:52;;;;;;;1999.90;999.90;;;;;;;17.91;90.75;101371.25;10359719;28;20053;-77
2023/09/23 11:45:55;;;;;;;1999.90;999.90;;;;;;;18.27;81.81;101375.41;10359411;28;20054;-77
2023/09/23 11:50:57;;;;;;;1999.90;999.90;;;;;;;17.46;89.53;101385.28;10376526;28;20046;-78
2023/09/23 11:56:00;;;;;;;1999.90;999.90;;;;;;;17.43;88.24;101391.69;10375777;28;20068;-78
2023/09/23 12:01:02;;;;;;;1999.90;999.90;;;;;;;16.95;90.94;101399.72;10358601;28;20077;-78
2023/09/23 12:06:04;;;;;;;1999.90;999.90;;;;;;;16.35;96.59;101420.78;10357917;28;20415;-76
2023/09/23 12:11:07;;;;;;;1999.90;999.90;;;;;;;16.14;100.00;101423.19;10375144;28;20491;-76
2023/09/23 12:16:10;;;;;;;1999.90;999.90;;;;;;;15.87;100.00;101436.53;10374435;28;20410;-76
2023/09/23 12:21:13;;;;;;;1999.90;999.90;;;;;;;16.03;100.00;101435.44;10375323;28;20053;-77
2023/09/23 12:26:15;;;;;;;1999.90;999.90;;;;;;;15.97;100.00;101431.47;10374691;28;20487;-76
2023/09/23 12:31:18;;;;;;;1999.90;999.90;;;;;;;16.25;100.00;101445.34;10357861;28;20054;-77
2023/09/23 12:36:20;;;;;;;1999.90;999.90;;;;;;;16.11;100.00;101446.31;10357727;28;20050;-77
2023/09/23 12:41:23;;;;;;;1999.90;999.90;;;;;;;15.92;100.00;101452.91;10357427;28;20054;-76
2023/09/23 12:46:25;;;;;;;1999.90;999.90;;;;;;;16.44;100.00;101460.72;10374209;28;20410;-77
2023/09/23 12:51:28;;;;;;;1999.90;999.90;;;;;;;17.21;100.00;101449.84;10357353;28;20049;-77
2023/09/23 12:56:30;;;;;;;1999.90;999.90;;;;;;;17.25;100.00;101452.16;10373763;28;20388;-77
2023/09/23 13:01:36;;;;;;;1999.90;999.90;;;;;;;17.49;100.00;101453.88;10373790;28;20136;-77
2023/09/23 13:06:38;;;;;;;1999.90;999.90;;;;;;;17.09;100.00;101455.06;10374427;28;20108;-77
2023/09/23 13:11:42;;;;;;;1999.90;999.90;;;;;;;16.50;100.00;101482.25;10356966;28;20096;-77
2023/09/23 13:16:45;;;;;;;1999.90;999.90;;;;;;;16.56;100.00;101474.84;10357092;28;20049;-77
2023/09/23 13:21:50;;;;;;;1999.90;999.90;;;;;;;16.57;100.00;101487.13;10374153;28;20046;-77
2023/09/23 13:26:52;;;;;;;1999.90;999.90;;;;;;;16.09;100.00;101511.63;10374044;28;20057;-77
2023/09/23 13:31:56;;;;;;;1999.90;999.90;;;;;;;15.21;100.00;101526.25;10381164;28;20076;-78
2023/09/23 13:36:58;;;;;;;1999.90;999.90;;;;;;;15.37;100.00;101539.25;10380988;28;20050;-79
2023/09/23 13:42:02;;;;;;;1999.90;999.90;;;;;;;15.37;100.00;101544.53;10363497;28;20479;-78
2023/09/23 13:47:05;;;;;;;1999.90;999.90;;;;;;;15.85;100.00;101541.38;10380659;28;20050;-79
2023/09/23 13:52:08;;;;;;;1999.90;999.90;;;;;;;16.13;100.00;101544.78;10381167;28;20042;-79
2023/09/23 13:57:10;;;;;;;1999.90;999.90;;;;;;;16.40;100.00;101547.31;10380212;28;20057;-79
2023/09/23 14:02:14;;;;;;;1999.90;999.90;;;;;;;16.39;100.00;101545.63;10381364;28;20132;-78
2023/09/23 14:07:17;;;;;;;1999.90;999.90;;;;;;;17.07;100.00;101554.88;10380064;28;20045;-78
2023/09/23 14:12:19;;;;;;;1999.90;999.90;;;;;;;17.51;100.00;101544.63;10362326;28;20050;-78
2023/09/23 14:17:22;;;;;;;1999.90;999.90;;;;;;;18.78;100.00;101543.69;10362137;28;20486;-78
2023/09/23 14:22:26;;;;;;;1999.90;999.90;;;;;;;19.64;97.61;101546.44;10362014;28;20383;-79
2023/09/23 14:27:28;;;;;;;1999.90;999.90;;;;;;;18.33;100.00;101559.63;10379799;28;20053;-79
2023/09/23 14:32:31;;;;;;;1999.90;999.90;;;;;;;17.89;100.00;101564.75;10362254;28;20054;-79
2023/09/23 14:37:34;;;;;;;1999.90;999.90;;;;;;;17.28;100.00;101570.13;10362248;28;20064;-79
2023/09/23 14:42:36;;;;;;;1999.90;999.90;;;;;;;17.90;100.00;101570.88;10361010;28;20408;-79
2023/09/23 14:47:40;;;;;;;1999.90;999.90;;;;;;;17.59;100.00;101568.72;10361655;28;20058;-79
2023/09/23 14:52:44;;;;;;;1999.90;999.90;;;;;;;17.07;100.00;101578.69;10378112;28;20046;-78
2023/09/23 14:57:47;;;;;;;1999.90;999.90;;;;;;;17.25;100.00;101581.81;10377971;28;20058;-78
2023/09/23 15:02:50;;;;;;;1999.90;999.90;;;;;;;18.68;99.09;101590.47;10377641;28;20484;-79
2023/09/23 15:07:52;;;;;;;1999.90;999.90;;;;;;;17.72;99.67;101603.06;10360921;28;20052;-78
2023/09/23 15:12:55;;;;;;;1999.90;999.90;;;;;;;16.91;100.00;101604.56;10360568;28;20053;-79
2023/09/23 15:17:58;;;;;;;1999.90;999.90;;;;;;;16.92;100.00;101605.41;10359969;28;20050;-79
2023/09/23 15:23:01;;;;;;;1999.90;999.90;;;;;;;16.48;100.00;101610.22;10359610;28;20050;-79
2023/09/23 15:28:05;;;;;;;1999.90;999.90;;;;;;;16.37;100.00;101610.09;10360395;28;20050;-79
2023/09/23 15:33:07;;;;;;;1999.90;999.90;;;;;;;16.87;100.00;101625.09;10376573;28;20085;-79
2023/09/23 15:38:11;;;;;;;1999.90;999.90;;;;;;;16.86;100.00;101636.66;10359623;28;20049;-79
2023/09/23 15:43:14;;;;;;;1999.90;999.90;;;;;;;17.53;100.00;101634.53;10359365;28;20486;-79
2023/09/23 15:48:16;;;;;;;1999.90;999.90;;;;;;;16.80;100.00;101637.03;10359268;28;20054;-79
2023/09/23 15:53:18;;;;;;;1999.90;999.90;;;;;;;16.55;100.00;101651.13;10342283;28;20054;-79
2023/09/23 15:58:21;;;;;;;1999.90;999.90;;;;;;;16.09;100.00;101663.03;10333791;28;20459;-79
2023/09/23 16:03:23;;;;;;;1999.90;999.90;;;;;;;16.21;100.00;101673.72;10335499;28;20057;-78
2023/09/23 16:08:27;;;;;;;1999.90;999.90;;;;;;;15.97;100.00;101674.44;10350402;28;20069;-78
2023/09/23 16:13:30;;;;;;;1999.90;999.90;;;;;;;15.71;100.00;101681.38;10335301;28;20463;-78
2023/09/23 16:18:32;;;;;;;1999.90;999.90;;;;;;;15.80;100.00;101691.34;10334560;28;20566;-78
2023/09/23 16:23:34;;;;;;;1999.90;999.90;;;;;;;15.95;100.00;101702.72;10349295;28;20069;-78
2023/09/23 16:28:37;;;;;;;1999.90;999.90;;;;;;;15.72;100.00;101710.31;10333011;28;20419;-78
2023/09/23 16:33:39;;;;;;;1999.90;999.90;;;;;;;15.82;100.00;101713.25;10333900;28;20113;-80
2023/09/23 16:38:42;;;;;;;1999.90;999.90;;;;;;;15.73;100.00;101719.06;10349051;28;20404;-78
2023/09/23 16:43:46;;;;;;;1999.90;999.90;;;;;;;15.54;100.00;101732.63;10334268;28;20054;-78
2023/09/23 16:48:48;;;;;;;1999.90;999.90;;;;;;;15.66;100.00;101747.66;10334257;28;20050;-78
2023/09/23 16:53:50;;;;;;;1999.90;999.90;;;;;;;15.32;100.00;101754.22;10334336;28;20049;-78
2023/09/23 16:58:53;;;;;;;1999.90;999.90;;;;;;;15.16;100.00;101749.91;10332557;28;20116;-78
2023/09/23 17:03:55;;;;;;;1999.90;999.90;;;;;;;14.93;100.00;101760.97;10338678;28;20117;-78
2023/09/23 17:08:58;;;;;;;1999.90;999.90;;;;;;;14.88;100.00;101777.09;10341450;28;20084;-78
2023/09/23 17:14:00;;;;;;;1999.90;999.90;;;;;;;14.77;100.00;101776.88;10342254;28;20052;-78
2023/09/23 17:19:03;;;;;;;1999.90;999.90;;;;;;;14.77;100.00;101790.91;10356953;28;20050;-78
2023/09/23 17:24:05;;;;;;;1999.90;999.90;;;;;;;14.49;100.00;101800.41;10340942;28;20498;-77
2023/09/23 17:29:08;;;;;;;1999.90;999.90;;;;;;;14.77;100.00;101798.81;10339915;28;20080;-77
2023/09/23 17:34:10;;;;;;;1999.90;999.90;;;;;;;14.69;100.00;101808.97;10341287;28;20050;-77
2023/09/23 17:39:13;;;;;;;1999.90;999.90;;;;;;;14.64;100.00;101813.66;10340164;28;20097;-78
2023/09/23 17:44:15;;;;;;;1999.90;999.90;;;;;;;14.43;100.00;101821.00;10340497;28;20381;-77
2023/09/23 17:49:18;;;;;;;1999.90;999.90;;;;;;;14.43;100.00;101824.47;10340348;28;20078;-77
2023/09/23 17:54:20;;;;;;;1999.90;999.90;;;;;;;14.14;100.00;101834.03;10340563;28;20053;-78
2023/09/23 17:59:22;;;;;;;1999.90;999.90;;;;;;;14.20;100.00;101846.00;10378930;28;20084;-78
2023/09/23 18:04:25;;;;;;;1999.90;999.90;;;;;;;14.43;100.00;101852.63;10380655;28;20054;-78
2023/09/23 18:09:28;;;;;;;1999.90;999.90;;;;;;;14.19;100.00;101868.88;10380531;28;20053;-77
2023/09/23 18:14:30;;;;;;;1999.90;999.90;;;;;;;14.01;100.00;101872.50;10379401;28;20050;-78
2023/09/23 18:19:36;;;;;;;1999.90;999.90;;;;;;;13.91;100.00;101874.78;10380083;28;20058;-77
2023/09/23 18:24:39;;;;;;;1999.90;999.90;;;;;;;13.86;100.00;101880.31;10363168;28;20123;-78
2023/09/23 18:29:41;;;;;;;1999.90;999.90;;;;;;;13.79;100.00;101892.09;10379945;28;20053;-78
2023/09/23 18:34:44;;;;;;;1999.90;999.90;;;;;;;13.86;100.00;101890.84;10379555;28;20058;-77
2023/09/23 18:39:47;;;;;;;1999.90;999.90;;;;;;;13.78;100.00;101906.19;10378669;28;20414;-78
2023/09/23 18:44:50;;;;;;;1999.90;999.90;;;;;;;13.69;100.00;101906.69;10361152;28;20042;-77
2023/09/23 18:49:53;;;;;;;1999.90;999.90;;;;;;;13.75;100.00;101906.34;10361610;28;20050;-78
2023/09/23 18:54:55;;;;;;;1999.90;999.90;;;;;;;13.63;100.00;101943.84;10361349;28;20042;-77
2023/09/23 18:59:58;;;;;;;1999.90;999.90;;;;;;;13.53;100.00;101943.47;10360551;28;20411;-77
2023/09/23 19:05:01;;;;;;;1999.90;999.90;;;;;;;13.65;100.00;101961.25;10360899;28;20125;-78
2023/09/23 19:10:05;;;;;;;1999.90;999.90;;;;;;;13.78;100.00;101966.72;10397072;22;20560;-78
2023/09/23 19:15:08;;;;;;;1999.90;999.90;;;;;;;13.78;100.00;101965.88;10401923;28;20056;-78
2023/09/23 19:20:10;;;;;;;1999.90;999.90;;;;;;;13.59;100.00;101973.88;10418770;28;20049;-78
2023/09/23 19:25:14;;;;;;;1999.90;999.90;;;;;;;13.57;100.00;101987.13;10419016;28;20049;-78
2023/09/23 19:30:17;;;;;;;1999.90;999.90;;;;;;;13.30;100.00;101994.59;10418465;28;20053;-78
2023/09/23 19:35:19;;;;;;;1999.90;999.90;;;;;;;13.32;100.00;102003.28;10418239;28;20052;-77
2023/09/23 19:40:22;;;;;;;1999.90;999.90;;;;;;;13.60;100.00;102015.03;10400536;28;20057;-78
2023/09/23 19:45:24;;;;;;;1999.90;999.90;;;;;;;13.53;100.00;102019.75;10417776;28;20045;-77
2023/09/23 19:50:27;;;;;;;1999.90;999.90;;;;;;;13.73;100.00;102024.00;10417013;28;20534;-78
2023/09/23 19:55:30;;;;;;;1999.90;999.90;;;;;;;13.56;100.00;102032.75;10399826;28;20053;-78
2023/09/23 20:00:35;;;;;;;1999.90;999.90;;;;;;;13.48;100.00;102042.81;10417705;28;20132;-78
2023/09/23 20:05:38;;;;;;;1999.90;999.90;;;;;;;13.49;100.00;102048.00;10383633;28;20073;-77
2023/09/23 20:10:42;;;;;;;1999.90;999.90;;;;;;;13.44;100.00;102050.00;10416435;28;20137;-78
2023/09/23 20:15:45;;;;;;;1999.90;999.90;;;;;;;13.40;100.00;102053.75;10399356;28;20060;-78
2023/09/23 20:20:47;;;;;;;1999.90;999.90;;;;;;;13.24;100.00;102055.38;10398402;28;20466;-77
2023/09/23 20:25:51;;;;;;;1999.90;999.90;;;;;;;13.28;100.00;102057.78;10398321;28;20383;-78
2023/09/23 20:31:00;;;;;;;1999.90;999.90;;;;;;;13.07;100.00;102070.19;10382691;28;20053;-79
2023/09/23 20:36:05;;;;;;;1999.90;999.90;;;;;;;13.22;100.00;102070.38;10398168;28;20045;-78
2023/09/23 20:41:07;;;;;;;1999.90;999.90;;;;;;;13.09;100.00;102070.94;10416549;28;20132;-77
2023/09/23 20:46:10;;;;;;;1999.90;999.90;;;;;;;12.78;100.00;102088.19;10415906;28;20045;-77
2023/09/23 20:51:13;;;;;;;1999.90;999.90;;;;;;;12.95;100.00;102086.53;10415465;28;20410;-78
2023/09/23 20:56:16;;;;;;;1999.90;999.90;;;;;;;12.86;100.00;102089.59;10415526;28;20502;-78
2023/09/23 21:01:19;;;;;;;1999.90;999.90;;;;;;;12.70;100.00;102087.66;10397632;28;20050;-78
2023/09/23 21:06:21;;;;;;;1999.90;999.90;;;;;;;12.40;100.00;102103.88;10381873;28;20072;-78
2023/09/23 21:11:24;;;;;;;1999.90;999.90;;;;;;;12.44;100.00;102112.50;10397527;28;20057;-78
2023/09/23 21:16:27;;;;;;;1999.90;999.90;;;;;;;12.20;100.00;102107.38;10381616;28;20045;-78
2023/09/23 21:21:29;;;;;;;1999.90;999.90;;;;;;;12.06;100.00;102123.72;10381582;28;20049;-78
2023/09/23 21:26:31;;;;;;;1999.90;999.90;;;;;;;12.23;100.00;102119.53;10397478;28;20050;-78
2023/09/23 21:31:34;;;;;;;1999.90;999.90;;;;;;;12.45;100.00;102122.91;10397111;28;20509;-78
2023/09/23 21:36:38;;;;;;;1999.90;999.90;;;;;;;12.38;100.00;102115.41;10415013;28;20041;-78
2023/09/23 21:41:41;;;;;;;1999.90;999.90;;;;;;;12.29;100.00;102123.66;10414014;28;20494;-77